Time;durP1;ratioP1;P1;durP2;ratioP2;P2;SDS_P1;SDS_P2;PMS_P1;PMS_P2;Temp;Humidity;BMP_temperature;BMP_pressure;BME280_temperature;BME280_humidity;BME280_pressure;Samples;Min_cycle;Max_cycle;Signal;HPM_P1;HPM_P2
2023/04/07 00:01:49;;;;;;;5.40;3.60;;;;;;;;;;107845;279;40286;-30
2023/04/07 00:04:28;;;;;;;5.60;3.80;;;;;;;;;;107906;271;42856;-30
2023/04/07 00:07:04;;;;;;;5.50;3.80;;;;;;;;;;107942;279;43747;-30
2023/04/07 00:09:40;;;;;;;5.80;3.70;;;;;;;;;;107887;279;38783;-30
2023/04/07 00:12:15;;;;;;;5.60;3.80;;;;;;;;;;107872;279;40888;-30
2023/04/07 00:14:50;;;;;;;4.90;3.20;;;;;;;;;;107894;279;42862;-30
2023/04/07 00:17:27;;;;;;;5.40;3.50;;;;;;;;;;107938;271;43481;-30
2023/04/07 00:20:03;;;;;;;5.30;3.50;;;;;;;;;;107882;271;39908;-30
2023/04/07 00:22:36;;;;;;;5.70;3.60;;;;;;;;;;107867;271;39690;-30
2023/04/07 00:25:11;;;;;;;5.40;3.50;;;;;;;;;;107884;279;44153;-30
2023/04/07 00:27:45;;;;;;;5.80;3.70;;;;;;;;;;107916;279;42230;-30
2023/04/07 00:30:20;;;;;;;5.20;3.70;;;;;;;;;;107912;271;38747;-30
2023/04/07 00:32:54;;;;;;;5.00;3.40;;;;;;;;;;107849;278;39978;-30
2023/04/07 00:35:27;;;;;;;5.20;3.40;;;;;;;;;;107885;279;42868;-30
2023/04/07 00:38:02;;;;;;;5.10;3.40;;;;;;;;;;107903;279;42138;-30
2023/04/07 00:40:37;;;;;;;4.90;3.20;;;;;;;;;;107867;279;38837;-30
2023/04/07 00:43:11;;;;;;;5.10;3.40;;;;;;;;;;107879;278;39722;-30
2023/04/07 00:45:46;;;;;;;5.00;3.10;;;;;;;;;;107887;279;42656;-30
2023/04/07 00:48:20;;;;;;;5.30;3.50;;;;;;;;;;107862;279;41864;-30
2023/04/07 00:50:55;;;;;;;5.50;3.70;;;;;;;;;;107927;279;38556;-29
2023/04/07 00:53:29;;;;;;;5.00;3.30;;;;;;;;;;107875;271;39676;-30
2023/04/07 00:56:04;;;;;;;5.60;3.60;;;;;;;;;;107886;279;42928;-30
2023/04/07 00:58:37;;;;;;;5.10;3.40;;;;;;;;;;107857;279;41887;-30
2023/04/07 01:01:15;;;;;;;5.10;3.40;;;;;;;;;;107887;279;38809;-30
2023/04/07 01:03:58;;;;;;;5.10;3.40;;;;;;;;;;107760;271;39721;-30
2023/04/07 01:06:37;;;;;;;4.90;3.10;;;;;;;;;;107884;279;42984;-30
2023/04/07 01:09:20;;;;;;;5.60;3.50;;;;;;;;;;107906;271;42043;-30
2023/04/07 01:12:02;;;;;;;5.00;3.10;;;;;;;;;;107898;279;38813;-30
2023/04/07 01:14:46;;;;;;;5.20;3.30;;;;;;;;;;107917;275;46286;-30
2023/04/07 01:17:23;;;;;;;5.00;3.20;;;;;;;;;;107906;271;42835;-30
2023/04/07 01:20:04;;;;;;;5.50;3.50;;;;;;;;;;107918;279;42147;-30
2023/04/07 01:22:46;;;;;;;5.10;3.40;;;;;;;;;;107812;271;39837;-30
2023/04/07 01:25:42;;;;;;;5.40;3.40;;;;;;;;;;107950;279;39727;-30
2023/04/07 01:28:41;;;;;;;5.00;3.20;;;;;;;;;;107970;271;42957;-30
2023/04/07 01:31:18;;;;;;;5.50;3.50;;;;;;;;;;107918;279;42157;-30
2023/04/07 01:33:54;;;;;;;5.40;3.40;;;;;;;;;;107849;271;38827;-30
2023/04/07 01:36:32;;;;;;;5.10;3.40;;;;;;;;;;107928;279;39707;-30
2023/04/07 01:39:08;;;;;;;5.50;3.70;;;;;;;;;;107566;279;427261;-29
2023/04/07 01:41:43;;;;;;;5.20;3.30;;;;;;;;;;107920;279;42217;-30
2023/04/07 01:44:20;;;;;;;4.80;3.20;;;;;;;;;;107902;279;38864;-30
2023/04/07 01:47:00;;;;;;;5.20;3.40;;;;;;;;;;107918;279;39784;-30
2023/04/07 01:49:37;;;;;;;5.30;3.50;;;;;;;;;;107949;279;42645;-30
2023/04/07 01:52:11;;;;;;;5.40;3.60;;;;;;;;;;107940;279;42335;-30
2023/04/07 01:54:48;;;;;;;5.20;3.40;;;;;;;;;;107909;271;39014;-30
2023/04/07 01:57:23;;;;;;;5.20;3.50;;;;;;;;;;107898;271;41121;-30
2023/04/07 02:00:00;;;;;;;5.40;3.40;;;;;;;;;;107962;271;43349;-30
2023/04/07 02:02:36;;;;;;;5.10;3.50;;;;;;;;;;107943;275;42564;-30
2023/04/07 02:05:15;;;;;;;5.20;3.20;;;;;;;;;;107873;271;38665;-30
2023/04/07 02:07:58;;;;;;;4.90;3.30;;;;;;;;;;107971;271;39775;-30
2023/04/07 02:10:35;;;;;;;4.90;3.30;;;;;;;;;;107939;279;43356;-30
2023/04/07 02:13:13;;;;;;;5.10;3.40;;;;;;;;;;107944;279;42209;-30
2023/04/07 02:15:48;;;;;;;5.10;3.20;;;;;;;;;;108057;279;44921;-30
2023/04/07 02:18:23;;;;;;;5.10;3.40;;;;;;;;;;107789;271;175696;-30
2023/04/07 02:20:58;;;;;;;5.60;3.60;;;;;;;;;;107934;271;42810;-30
2023/04/07 02:23:33;;;;;;;4.70;3.20;;;;;;;;;;107925;271;42196;-30
2023/04/07 02:26:08;;;;;;;5.40;3.60;;;;;;;;;;107887;279;45122;-30
2023/04/07 02:28:42;;;;;;;4.80;3.20;;;;;;;;;;107965;271;40808;-30
2023/04/07 02:31:18;;;;;;;4.90;3.20;;;;;;;;;;107973;279;42891;-30
2023/04/07 02:33:53;;;;;;;5.30;3.20;;;;;;;;;;107880;275;43191;-30
2023/04/07 02:36:26;;;;;;;5.20;3.20;;;;;;;;;;107917;279;45471;-30
2023/04/07 02:39:02;;;;;;;5.00;3.40;;;;;;;;;;107947;279;39877;-30
2023/04/07 02:41:38;;;;;;;5.00;3.30;;;;;;;;;;107949;271;45422;-30
2023/04/07 02:44:11;;;;;;;4.90;3.40;;;;;;;;;;107956;279;42144;-30
2023/04/07 02:46:45;;;;;;;5.20;3.50;;;;;;;;;;107826;279;45197;-30
2023/04/07 02:49:21;;;;;;;5.10;3.50;;;;;;;;;;107921;279;41028;-30
2023/04/07 02:51:55;;;;;;;5.50;3.60;;;;;;;;;;107939;271;44038;-30
2023/04/07 02:54:29;;;;;;;5.20;3.40;;;;;;;;;;107941;279;43454;-30
2023/04/07 02:57:02;;;;;;;4.70;3.40;;;;;;;;;;107857;271;44614;-30
2023/04/07 02:59:38;;;;;;;5.40;3.60;;;;;;;;;;107921;271;39721;-30
2023/04/07 03:02:11;;;;;;;5.00;3.40;;;;;;;;;;107890;279;42883;-30
2023/04/07 03:04:45;;;;;;;4.90;3.20;;;;;;;;;;107909;271;42276;-30
2023/04/07 03:07:20;;;;;;;5.30;3.40;;;;;;;;;;107885;279;44465;-30
2023/04/07 03:09:54;;;;;;;5.80;3.60;;;;;;;;;;107831;275;175707;-30
2023/04/07 03:12:29;;;;;;;5.50;3.60;;;;;;;;;;107943;275;42929;-30
2023/04/07 03:15:08;;;;;;;5.30;3.80;;;;;;;;;;107936;271;42211;-30
2023/04/07 03:17:41;;;;;;;6.00;3.70;;;;;;;;;;108049;271;45552;-30
2023/04/07 03:20:17;;;;;;;5.60;3.60;;;;;;;;;;107924;279;40894;-30
2023/04/07 03:22:50;;;;;;;6.00;3.70;;;;;;;;;;107919;275;42879;-30
2023/04/07 03:25:25;;;;;;;5.40;3.80;;;;;;;;;;107909;279;44378;-30
2023/04/07 03:28:00;;;;;;;6.20;3.90;;;;;;;;;;107865;271;45681;-30
2023/04/07 03:30:35;;;;;;;5.40;3.80;;;;;;;;;;107918;271;40850;-30
2023/04/07 03:33:10;;;;;;;5.90;3.70;;;;;;;;;;107968;279;42814;-30
2023/04/07 03:35:45;;;;;;;5.90;3.80;;;;;;;;;;107885;279;41879;-30
2023/04/07 03:38:20;;;;;;;5.60;3.50;;;;;;;;;;107886;271;44524;-30
2023/04/07 03:40:55;;;;;;;6.00;3.90;;;;;;;;;;107896;279;40060;-30
2023/04/07 03:43:29;;;;;;;5.80;3.90;;;;;;;;;;107904;279;43162;-30
2023/04/07 03:46:04;;;;;;;6.00;3.70;;;;;;;;;;107896;271;42401;-30
2023/04/07 03:48:38;;;;;;;6.90;3.90;;;;;;;;;;107867;279;44511;-30
2023/04/07 03:51:12;;;;;;;5.90;3.80;;;;;;;;;;107905;271;39864;-30
2023/04/07 03:53:46;;;;;;;5.80;3.90;;;;;;;;;;107877;271;42876;-30
2023/04/07 03:56:21;;;;;;;6.90;4.20;;;;;;;;;;107937;279;42127;-30
2023/04/07 03:58:56;;;;;;;5.90;3.90;;;;;;;;;;107862;279;45433;-30
2023/04/07 04:01:30;;;;;;;5.90;4.00;;;;;;;;;;107933;279;39729;-30
2023/04/07 04:04:06;;;;;;;5.40;3.80;;;;;;;;;;107928;279;42896;-30
2023/04/07 04:06:41;;;;;;;5.70;4.00;;;;;;;;;;107923;279;43688;-30
2023/04/07 04:09:16;;;;;;;6.10;4.10;;;;;;;;;;107875;279;45409;-30
2023/04/07 04:11:51;;;;;;;6.10;3.80;;;;;;;;;;107902;279;42266;-30
2023/04/07 04:14:28;;;;;;;5.40;3.80;;;;;;;;;;107919;271;42909;-30
2023/04/07 04:17:02;;;;;;;5.70;3.90;;;;;;;;;;107912;279;42412;-30
2023/04/07 04:19:38;;;;;;;6.40;4.30;;;;;;;;;;107926;271;38910;-30
2023/04/07 04:22:13;;;;;;;6.30;3.90;;;;;;;;;;107939;271;40624;-30
2023/04/07 04:24:49;;;;;;;6.00;4.00;;;;;;;;;;107889;279;43183;-30
2023/04/07 04:27:24;;;;;;;5.90;4.20;;;;;;;;;;107866;279;42263;-30
2023/04/07 04:29:58;;;;;;;5.90;3.90;;;;;;;;;;107966;279;45918;-30
2023/04/07 04:32:33;;;;;;;6.00;3.90;;;;;;;;;;107877;279;41141;-30
2023/04/07 04:35:11;;;;;;;5.50;3.90;;;;;;;;;;107897;279;44069;-30
2023/04/07 04:37:47;;;;;;;5.70;3.80;;;;;;;;;;107901;279;43248;-30
2023/04/07 04:40:22;;;;;;;5.80;4.10;;;;;;;;;;107935;279;45533;-30
2023/04/07 04:42:58;;;;;;;6.00;4.00;;;;;;;;;;107906;279;39679;-30
2023/04/07 04:45:33;;;;;;;6.50;4.00;;;;;;;;;;107901;271;42880;-30
2023/04/07 04:48:09;;;;;;;5.90;4.30;;;;;;;;;;107715;279;175634;-30
2023/04/07 04:50:45;;;;;;;6.50;4.30;;;;;;;;;;107953;271;44965;-30
2023/04/07 04:53:20;;;;;;;6.10;4.10;;;;;;;;;;107875;271;39902;-30
2023/04/07 04:55:55;;;;;;;5.60;4.00;;;;;;;;;;107915;275;44272;-30
2023/04/07 04:58:29;;;;;;;5.70;4.10;;;;;;;;;;107873;279;43398;-30
2023/04/07 05:01:04;;;;;;;5.90;4.00;;;;;;;;;;107908;279;44875;-30
2023/04/07 05:03:40;;;;;;;5.60;4.20;;;;;;;;;;107913;271;41048;-30
2023/04/07 05:06:14;;;;;;;5.90;4.10;;;;;;;;;;107944;271;44283;-30
2023/04/07 05:08:48;;;;;;;5.30;4.00;;;;;;;;;;107825;279;42142;-30
2023/04/07 05:11:24;;;;;;;6.00;4.10;;;;;;;;;;107909;271;45412;-30
2023/04/07 05:14:00;;;;;;;6.50;4.10;;;;;;;;;;108041;275;40914;-30
2023/04/07 05:16:33;;;;;;;5.70;4.10;;;;;;;;;;107935;271;44403;-30
2023/04/07 05:19:09;;;;;;;5.60;4.10;;;;;;;;;;107798;275;175625;-30
2023/04/07 05:21:44;;;;;;;6.20;4.20;;;;;;;;;;107929;271;45219;-30
2023/04/07 05:24:20;;;;;;;5.40;4.00;;;;;;;;;;107956;271;40813;-30
2023/04/07 05:26:56;;;;;;;5.90;4.20;;;;;;;;;;107950;279;43231;-30
2023/04/07 05:29:32;;;;;;;5.80;4.10;;;;;;;;;;107893;271;42646;-30
2023/04/07 05:32:06;;;;;;;6.00;4.10;;;;;;;;;;107951;271;39214;-30
2023/04/07 05:34:43;;;;;;;4.90;3.80;;;;;;;;;;107940;279;39763;-30
2023/04/07 05:37:19;;;;;;;5.90;4.10;;;;;;;;;;107880;279;42875;-30
2023/04/07 05:39:54;;;;;;;5.90;4.40;;;;;;;;;;107869;279;42153;-30
2023/04/07 05:42:29;;;;;;;6.70;4.40;;;;;;;;;;107917;279;38852;-30
2023/04/07 05:45:08;;;;;;;5.40;3.90;;;;;;;;;;107901;279;39699;-30
2023/04/07 05:47:46;;;;;;;5.80;4.20;;;;;;;;;;107946;271;42865;-30
2023/04/07 05:50:20;;;;;;;6.60;4.40;;;;;;;;;;107931;271;41994;-30
2023/04/07 05:52:57;;;;;;;5.50;4.10;;;;;;;;;;107898;271;38801;-30
2023/04/07 05:55:32;;;;;;;5.60;4.10;;;;;;;;;;107881;279;39540;-30
2023/04/07 05:58:06;;;;;;;5.70;4.20;;;;;;;;;;107872;279;43465;-30
2023/04/07 06:00:41;;;;;;;6.20;4.30;;;;;;;;;;107872;275;42256;-30
2023/04/07 06:03:19;;;;;;;5.70;4.50;;;;;;;;;;107891;275;39955;-30
2023/04/07 06:05:53;;;;;;;5.60;4.30;;;;;;;;;;107919;271;39851;-30
2023/04/07 06:08:31;;;;;;;6.00;4.20;;;;;;;;;;107949;271;42830;-30
2023/04/07 06:11:05;;;;;;;6.40;4.60;;;;;;;;;;107822;279;42590;-30
2023/04/07 06:13:39;;;;;;;5.40;4.00;;;;;;;;;;107916;279;38827;-30
2023/04/07 06:16:15;;;;;;;5.80;4.40;;;;;;;;;;107813;279;175621;-30
2023/04/07 06:18:52;;;;;;;6.90;4.60;;;;;;;;;;107932;271;42864;-30
2023/04/07 06:21:27;;;;;;;5.70;4.30;;;;;;;;;;107868;271;42309;-30
2023/04/07 06:24:03;;;;;;;5.80;4.30;;;;;;;;;;107943;279;38895;-30
2023/04/07 06:26:37;;;;;;;6.20;4.40;;;;;;;;;;107925;279;39780;-30
2023/04/07 06:29:13;;;;;;;6.20;4.50;;;;;;;;;;107929;271;42933;-30
2023/04/07 06:31:48;;;;;;;6.00;4.50;;;;;;;;;;107872;278;42232;-30
2023/04/07 06:34:22;;;;;;;5.60;4.40;;;;;;;;;;107901;279;38830;-30
2023/04/07 06:36:56;;;;;;;6.00;4.50;;;;;;;;;;107925;279;39714;-30
2023/04/07 06:39:34;;;;;;;6.40;4.80;;;;;;;;;;107912;279;42936;-30
2023/04/07 06:42:09;;;;;;;6.60;4.70;;;;;;;;;;107778;271;175613;-30
2023/04/07 06:44:43;;;;;;;6.40;4.40;;;;;;;;;;107950;271;38810;-30
2023/04/07 06:47:17;;;;;;;7.30;4.90;;;;;;;;;;107918;279;39440;-30
2023/04/07 06:49:53;;;;;;;6.40;4.70;;;;;;;;;;107940;271;42904;-30
2023/04/07 06:52:28;;;;;;;6.50;4.60;;;;;;;;;;107904;279;42049;-30
2023/04/07 06:55:02;;;;;;;6.50;4.80;;;;;;;;;;107928;271;39933;-30
2023/04/07 06:57:36;;;;;;;7.50;4.80;;;;;;;;;;107921;278;40998;-30
2023/04/07 07:00:12;;;;;;;7.90;4.80;;;;;;;;;;107941;271;43071;-30
2023/04/07 07:02:46;;;;;;;6.80;4.60;;;;;;;;;;107909;283;42124;-30
2023/04/07 07:05:20;;;;;;;6.00;4.60;;;;;;;;;;107902;271;38756;-30
2023/04/07 07:07:54;;;;;;;5.60;4.40;;;;;;;;;;107915;275;40843;-30
2023/04/07 07:10:30;;;;;;;6.50;5.00;;;;;;;;;;107920;279;42909;-30
2023/04/07 07:13:04;;;;;;;5.80;4.70;;;;;;;;;;107891;279;43478;-30
2023/04/07 07:15:38;;;;;;;6.60;4.50;;;;;;;;;;107903;279;38797;-30
2023/04/07 07:18:12;;;;;;;6.10;4.70;;;;;;;;;;107937;279;39691;-30
2023/04/07 07:20:46;;;;;;;7.30;4.70;;;;;;;;;;107922;279;44034;-30
2023/04/07 07:23:20;;;;;;;6.80;4.80;;;;;;;;;;107895;279;43259;-30
2023/04/07 07:25:54;;;;;;;6.80;4.90;;;;;;;;;;107908;271;40848;-29
2023/04/07 07:28:28;;;;;;;6.40;4.50;;;;;;;;;;107940;279;39802;-29
2023/04/07 07:31:03;;;;;;;6.40;4.70;;;;;;;;;;107902;271;43335;-29
2023/04/07 07:33:39;;;;;;;6.20;4.70;;;;;;;;;;107932;275;42121;-29
2023/04/07 07:36:13;;;;;;;6.90;4.90;;;;;;;;;;107943;271;39190;-29
2023/04/07 07:38:46;;;;;;;6.90;4.80;;;;;;;;;;107916;279;39849;-29
2023/04/07 07:41:20;;;;;;;6.80;4.80;;;;;;;;;;107909;279;43331;-29
2023/04/07 07:43:53;;;;;;;6.00;4.70;;;;;;;;;;107929;279;41937;-30
2023/04/07 07:46:27;;;;;;;6.70;5.20;;;;;;;;;;107810;279;175599;-30
2023/04/07 07:49:01;;;;;;;6.80;5.20;;;;;;;;;;107852;279;175590;-30
2023/04/07 07:51:35;;;;;;;5.80;4.60;;;;;;;;;;107961;279;44522;-30
2023/04/07 07:54:09;;;;;;;6.60;4.90;;;;;;;;;;107962;279;42150;-29
2023/04/07 07:56:43;;;;;;;6.30;4.80;;;;;;;;;;107960;279;38740;-29
2023/04/07 07:59:16;;;;;;;6.90;5.00;;;;;;;;;;107944;279;39725;-29
2023/04/07 08:01:50;;;;;;;6.80;4.90;;;;;;;;;;107909;279;43042;-29
2023/04/07 08:04:24;;;;;;;7.00;5.20;;;;;;;;;;107893;279;42618;-29
2023/04/07 08:06:57;;;;;;;14.50;7.60;;;;;;;;;;107884;279;39949;-29
2023/04/07 08:09:31;;;;;;;10.90;7.00;;;;;;;;;;107916;275;39451;-29
2023/04/07 08:12:05;;;;;;;9.60;6.30;;;;;;;;;;107917;279;43045;-29
2023/04/07 08:14:39;;;;;;;9.30;6.00;;;;;;;;;;107937;279;42119;-29
2023/04/07 08:17:12;;;;;;;9.90;6.80;;;;;;;;;;107927;271;38772;-29
2023/04/07 08:19:46;;;;;;;10.50;6.60;;;;;;;;;;107904;271;39756;-29
2023/04/07 08:22:19;;;;;;;8.90;6.00;;;;;;;;;;107899;271;44016;-29
2023/04/07 08:24:53;;;;;;;10.70;6.20;;;;;;;;;;107870;279;42540;-30
2023/04/07 08:27:26;;;;;;;10.30;5.90;;;;;;;;;;107796;279;38839;-30
2023/04/07 08:30:06;;;;;;;9.80;6.20;;;;;;;;;;107891;279;39909;-30
2023/04/07 08:32:42;;;;;;;9.50;6.40;;;;;;;;;;107901;271;42857;-30
2023/04/07 08:35:15;;;;;;;8.40;6.00;;;;;;;;;;107705;279;175622;-30
2023/04/07 08:37:49;;;;;;;9.20;6.20;;;;;;;;;;107880;279;39044;-31
2023/04/07 08:40:22;;;;;;;11.80;6.90;;;;;;;;;;107883;271;39923;-31
2023/04/07 08:42:56;;;;;;;9.50;6.70;;;;;;;;;;107922;271;43134;-31
2023/04/07 08:45:30;;;;;;;10.30;6.30;;;;;;;;;;107865;279;42166;-30
2023/04/07 08:48:15;;;;;;;11.10;6.30;;;;;;;;;;107925;279;38810;-30
2023/04/07 08:50:53;;;;;;;9.90;6.00;;;;;;;;;;107881;279;39687;-30
2023/04/07 08:53:38;;;;;;;9.00;5.70;;;;;;;;;;107753;275;175631;-30
2023/04/07 08:56:13;;;;;;;9.20;6.10;;;;;;;;;;107882;271;49488;-31
2023/04/07 08:58:48;;;;;;;10.40;6.00;;;;;;;;;;107901;279;38541;-31
2023/04/07 09:01:24;;;;;;;9.00;5.90;;;;;;;;;;107924;279;39788;-31
2023/04/07 09:04:02;;;;;;;10.00;6.00;;;;;;;;;;107862;279;43187;-30
2023/04/07 09:06:39;;;;;;;9.10;5.70;;;;;;;;;;107888;279;48392;-30
2023/04/07 09:09:15;;;;;;;9.90;6.10;;;;;;;;;;107911;279;38876;-30
2023/04/07 09:11:53;;;;;;;9.20;5.80;;;;;;;;;;107867;279;39628;-31
2023/04/07 09:14:27;;;;;;;9.20;5.70;;;;;;;;;;107783;279;42839;-31
2023/04/07 09:17:01;;;;;;;9.30;5.80;;;;;;;;;;107854;271;42244;-31
2023/04/07 09:19:35;;;;;;;9.20;6.00;;;;;;;;;;107870;279;38818;-31
2023/04/07 09:22:11;;;;;;;9.30;6.00;;;;;;;;;;107891;279;39813;-31
2023/04/07 09:24:45;;;;;;;8.60;6.00;;;;;;;;;;107816;279;42881;-30
2023/04/07 09:27:20;;;;;;;14.20;6.10;;;;;;;;;;107927;279;43396;-29
2023/04/07 09:30:13;;;;;;;11.70;5.90;;;;;;;;;;107917;279;39850;-30
2023/04/07 09:32:49;;;;;;;8.80;5.40;;;;;;;;;;107901;279;39892;-29
2023/04/07 09:35:26;;;;;;;9.10;5.80;;;;;;;;;;107826;284;42833;-29
2023/04/07 09:38:09;;;;;;;10.00;6.00;;;;;;;;;;107520;271;526636;-30
2023/04/07 09:40:44;;;;;;;9.00;5.80;;;;;;;;;;107764;279;38902;-30
2023/04/07 09:43:22;;;;;;;9.80;5.80;;;;;;;;;;107907;279;40956;-29
2023/04/07 09:46:09;;;;;;;8.80;6.00;;;;;;;;;;107855;279;44133;-29
2023/04/07 09:48:47;;;;;;;8.80;5.70;;;;;;;;;;107828;276;42262;-30
2023/04/07 09:51:22;;;;;;;9.60;5.90;;;;;;;;;;107768;272;39858;-30
2023/04/07 09:53:57;;;;;;;8.30;5.50;;;;;;;;;;107792;279;39743;-29
2023/04/07 09:56:32;;;;;;;9.20;6.00;;;;;;;;;;107741;279;42873;-30
2023/04/07 09:59:06;;;;;;;10.00;5.80;;;;;;;;;;107754;279;41883;-30
2023/04/07 10:01:40;;;;;;;8.70;5.70;;;;;;;;;;107791;279;39883;-30
2023/04/07 10:04:16;;;;;;;8.50;5.40;;;;;;;;;;107766;279;39510;-29
2023/04/07 10:06:50;;;;;;;9.30;5.60;;;;;;;;;;107764;279;44955;-30
2023/04/07 10:09:24;;;;;;;7.40;5.80;;;;;;;;;;107788;279;42221;-29
2023/04/07 10:11:59;;;;;;;7.40;5.50;;;;;;;;;;107802;279;39699;-29
2023/04/07 10:14:33;;;;;;;8.40;5.90;;;;;;;;;;107788;279;39750;-29
2023/04/07 10:17:07;;;;;;;8.70;5.70;;;;;;;;;;107735;279;42850;-30
2023/04/07 10:19:41;;;;;;;7.70;5.70;;;;;;;;;;107751;280;43292;-30
2023/04/07 10:22:15;;;;;;;8.30;5.50;;;;;;;;;;107761;280;39944;-30
2023/04/07 10:24:59;;;;;;;8.70;5.80;;;;;;;;;;107819;280;39831;-30
2023/04/07 10:27:48;;;;;;;7.50;5.30;;;;;;;;;;107738;280;43418;-30
2023/04/07 10:30:26;;;;;;;7.90;5.80;;;;;;;;;;107789;280;42162;-30
2023/04/07 10:33:01;;;;;;;7.60;5.70;;;;;;;;;;107783;280;38761;-30
2023/04/07 10:36:07;;;;;;;9.00;5.60;;;;;;;;;;107788;280;40215;-30
2023/04/07 10:38:42;;;;;;;8.80;6.10;;;;;;;;;;107887;280;49725;-30
2023/04/07 10:41:36;;;;;;;7.90;5.30;;;;;;;;;;107794;276;42148;-30
2023/04/07 10:44:32;;;;;;;8.00;5.90;;;;;;;;;;107808;280;39935;-30
2023/04/07 10:47:09;;;;;;;7.40;5.50;;;;;;;;;;107753;280;39862;-30
2023/04/07 10:50:16;;;;;;;8.70;5.80;;;;;;;;;;107792;279;43240;-30
2023/04/07 10:53:06;;;;;;;9.10;6.00;;;;;;;;;;107820;279;43198;-30
2023/04/07 10:55:41;;;;;;;9.30;5.60;;;;;;;;;;107789;272;38788;-30
2023/04/07 10:58:21;;;;;;;8.90;6.00;;;;;;;;;;107757;279;39829;-29
2023/04/07 11:01:21;;;;;;;7.90;5.60;;;;;;;;;;107801;272;42882;-29
2023/04/07 11:04:03;;;;;;;7.80;5.60;;;;;;;;;;107817;279;42214;-30
2023/04/07 11:06:48;;;;;;;8.30;6.20;;;;;;;;;;107652;279;175585;-30
2023/04/07 11:09:24;;;;;;;10.10;6.60;;;;;;;;;;107900;279;46325;-30
2023/04/07 11:11:58;;;;;;;9.60;6.50;;;;;;;;;;107804;279;42912;-30
2023/04/07 11:14:39;;;;;;;9.30;6.20;;;;;;;;;;107819;272;42233;-30
2023/04/07 11:17:19;;;;;;;9.30;6.40;;;;;;;;;;107791;279;38766;-30
2023/04/07 11:19:57;;;;;;;10.20;6.80;;;;;;;;;;107759;279;45868;-29
2023/04/07 11:22:34;;;;;;;9.60;7.40;;;;;;;;;;107802;272;42861;-30
2023/04/07 11:25:26;;;;;;;9.60;7.00;;;;;;;;;;107755;272;43412;-30
2023/04/07 11:27:58;;;;;;;;;;;;;;;;;;107772;279;40864;-30
2023/04/07 11:30:32;;;;;;;9.50;6.70;;;;;;;;;;107795;279;40168;-29
2023/04/07 11:33:06;;;;;;;9.30;6.90;;;;;;;;;;107806;279;43226;-30
2023/04/07 11:35:49;;;;;;;9.00;6.70;;;;;;;;;;107801;272;42154;-30
2023/04/07 11:38:26;;;;;;;10.60;7.10;;;;;;;;;;107798;279;38782;-30
2023/04/07 11:41:11;;;;;;;10.40;7.00;;;;;;;;;;107824;272;39809;-30
2023/04/07 11:43:46;;;;;;;10.40;7.20;;;;;;;;;;107788;279;42879;-30
2023/04/07 11:46:22;;;;;;;9.20;7.20;;;;;;;;;;107814;279;42176;-30
2023/04/07 11:49:10;;;;;;;9.40;6.90;;;;;;;;;;107784;272;38778;-30
2023/04/07 11:51:47;;;;;;;9.80;6.80;;;;;;;;;;107803;272;39487;-30
2023/04/07 11:54:21;;;;;;;9.00;6.80;;;;;;;;;;107768;279;44202;-30
2023/04/07 11:56:55;;;;;;;8.60;7.00;;;;;;;;;;107802;279;42227;-30
2023/04/07 11:59:29;;;;;;;9.40;7.00;;;;;;;;;;107784;272;38807;-29
2023/04/07 12:02:06;;;;;;;11.00;6.90;;;;;;;;;;107797;272;39749;-29
2023/04/07 12:04:58;;;;;;;8.90;6.70;;;;;;;;;;107807;272;42840;-30
2023/04/07 12:07:34;;;;;;;8.70;6.80;;;;;;;;;;107817;279;43308;-30
2023/04/07 12:10:24;;;;;;;10.00;6.70;;;;;;;;;;107789;279;40090;-30
2023/04/07 12:13:01;;;;;;;9.20;6.50;;;;;;;;;;107847;279;40306;-30
2023/04/07 12:15:36;;;;;;;8.60;6.50;;;;;;;;;;107699;279;196889;-30
2023/04/07 12:18:15;;;;;;;8.60;6.90;;;;;;;;;;107838;279;42310;-30
2023/04/07 12:20:50;;;;;;;8.30;6.80;;;;;;;;;;107791;279;39152;-29
2023/04/07 12:23:26;;;;;;;9.10;6.60;;;;;;;;;;107832;279;39797;-30
2023/04/07 12:26:02;;;;;;;10.00;6.80;;;;;;;;;;107841;279;42994;-30
2023/04/07 12:28:38;;;;;;;10.20;6.90;;;;;;;;;;107785;272;42224;-30
2023/04/07 12:31:14;;;;;;;8.60;6.90;;;;;;;;;;107786;271;46698;-30
2023/04/07 12:33:48;;;;;;;8.90;6.70;;;;;;;;;;107796;279;41042;-30
2023/04/07 12:36:23;;;;;;;8.10;6.30;;;;;;;;;;107736;279;196978;-30
2023/04/07 12:38:58;;;;;;;8.50;6.50;;;;;;;;;;107829;279;43234;-30
2023/04/07 12:41:32;;;;;;;8.90;6.90;;;;;;;;;;107813;279;45923;-30
2023/04/07 12:44:06;;;;;;;8.70;6.20;;;;;;;;;;107815;279;39816;-29
2023/04/07 12:46:42;;;;;;;8.40;6.30;;;;;;;;;;107825;279;43206;-30
2023/04/07 12:49:15;;;;;;;9.80;6.40;;;;;;;;;;107829;279;42279;-30
2023/04/07 12:51:49;;;;;;;7.80;6.10;;;;;;;;;;107774;271;44486;-30
2023/04/07 12:54:23;;;;;;;8.70;6.20;;;;;;;;;;107851;271;40910;-30
2023/04/07 12:56:57;;;;;;;8.60;6.10;;;;;;;;;;107842;272;44290;-30
2023/04/07 12:59:31;;;;;;;9.10;6.30;;;;;;;;;;107840;271;42584;-30
2023/04/07 13:02:05;;;;;;;8.10;6.10;;;;;;;;;;107817;283;44400;-30
2023/04/07 13:04:45;;;;;;;9.90;6.50;;;;;;;;;;107847;277;39666;-29
2023/04/07 13:07:20;;;;;;;9.00;6.20;;;;;;;;;;107835;279;45112;-30
2023/04/07 13:09:54;;;;;;;8.60;6.10;;;;;;;;;;107842;272;42286;-29
2023/04/07 13:12:28;;;;;;;8.80;6.30;;;;;;;;;;107930;272;39001;-29
2023/04/07 13:15:03;;;;;;;8.90;6.40;;;;;;;;;;107833;271;39739;-30
2023/04/07 13:17:37;;;;;;;7.70;6.20;;;;;;;;;;107793;271;42999;-30
2023/04/07 13:20:12;;;;;;;8.70;5.80;;;;;;;;;;107823;279;42042;-29
2023/04/07 13:22:46;;;;;;;8.60;6.20;;;;;;;;;;107857;272;44682;-30
2023/04/07 13:25:28;;;;;;;8.80;6.00;;;;;;;;;;107828;271;39690;-30
2023/04/07 13:28:04;;;;;;;9.70;6.10;;;;;;;;;;107871;272;43113;-30
2023/04/07 13:30:40;;;;;;;7.70;5.70;;;;;;;;;;107802;271;42149;-30
2023/04/07 13:33:14;;;;;;;8.40;5.70;;;;;;;;;;107872;279;38877;-30
2023/04/07 13:35:48;;;;;;;8.70;5.60;;;;;;;;;;107815;272;39655;-30
2023/04/07 13:38:21;;;;;;;8.80;5.70;;;;;;;;;;107822;279;42801;-30
2023/04/07 13:40:55;;;;;;;7.60;5.40;;;;;;;;;;107793;272;44422;-30
2023/04/07 13:43:29;;;;;;;7.90;5.60;;;;;;;;;;107821;279;38751;-30
2023/04/07 13:46:02;;;;;;;7.90;5.40;;;;;;;;;;107838;271;39718;-30
2023/04/07 13:48:42;;;;;;;7.50;5.40;;;;;;;;;;107803;272;42866;-30
2023/04/07 13:51:16;;;;;;;7.90;5.70;;;;;;;;;;107772;279;42377;-29
2023/04/07 13:53:49;;;;;;;8.50;5.50;;;;;;;;;;107812;279;38949;-30
2023/04/07 13:56:24;;;;;;;7.80;5.20;;;;;;;;;;107840;271;40966;-30
2023/04/07 13:58:58;;;;;;;7.20;5.20;;;;;;;;;;107778;279;43232;-29
2023/04/07 14:01:32;;;;;;;6.80;4.80;;;;;;;;;;107806;279;42110;-30
2023/04/07 14:04:06;;;;;;;6.80;4.90;;;;;;;;;;107827;272;38806;-30
2023/04/07 14:06:42;;;;;;;6.80;5.10;;;;;;;;;;107933;279;39867;-30
2023/04/07 14:09:16;;;;;;;7.10;5.00;;;;;;;;;;107823;272;44146;-30
2023/04/07 14:11:51;;;;;;;7.30;4.80;;;;;;;;;;107753;271;42306;-30
2023/04/07 14:14:25;;;;;;;7.00;4.80;;;;;;;;;;107717;279;175643;-30
2023/04/07 14:16:59;;;;;;;7.10;4.90;;;;;;;;;;107814;279;40755;-30
2023/04/07 14:19:33;;;;;;;6.00;4.50;;;;;;;;;;107828;279;42878;-30
2023/04/07 14:22:07;;;;;;;6.40;4.30;;;;;;;;;;107793;279;41894;-30
2023/04/07 14:24:42;;;;;;;6.40;4.40;;;;;;;;;;107859;279;38943;-30
2023/04/07 14:27:19;;;;;;;6.70;4.50;;;;;;;;;;107786;279;41903;-30
2023/04/07 14:29:55;;;;;;;6.60;4.30;;;;;;;;;;107812;275;43333;-30
2023/04/07 14:32:32;;;;;;;6.60;4.30;;;;;;;;;;107798;279;42020;-30
2023/04/07 14:35:07;;;;;;;6.00;4.00;;;;;;;;;;107800;279;38892;-30
2023/04/07 14:37:41;;;;;;;7.90;4.20;;;;;;;;;;107862;272;39677;-30
2023/04/07 14:40:15;;;;;;;7.40;4.00;;;;;;;;;;107792;272;43444;-30
2023/04/07 14:42:49;;;;;;;6.30;4.00;;;;;;;;;;107803;280;42220;-30
2023/04/07 14:45:23;;;;;;;6.60;3.90;;;;;;;;;;107792;272;39082;-30
2023/04/07 14:47:57;;;;;;;6.10;3.70;;;;;;;;;;107811;279;40905;-29
2023/04/07 14:50:33;;;;;;;6.50;3.70;;;;;;;;;;107827;279;43302;-29
2023/04/07 14:53:07;;;;;;;6.90;3.90;;;;;;;;;;107740;279;42218;-30
2023/04/07 14:55:41;;;;;;;5.80;3.60;;;;;;;;;;107776;272;38801;-30
2023/04/07 14:58:14;;;;;;;6.20;3.70;;;;;;;;;;107807;279;39685;-30
2023/04/07 15:00:48;;;;;;;6.20;3.60;;;;;;;;;;107804;275;44007;-30
2023/04/07 15:03:22;;;;;;;6.30;3.30;;;;;;;;;;107749;272;42296;-30
2023/04/07 15:05:55;;;;;;;7.00;4.00;;;;;;;;;;107806;272;38880;-30
2023/04/07 15:08:29;;;;;;;7.60;3.80;;;;;;;;;;107779;279;40128;-30
2023/04/07 15:11:03;;;;;;;6.70;3.50;;;;;;;;;;107796;272;42835;-30
2023/04/07 15:13:37;;;;;;;6.80;3.60;;;;;;;;;;107752;279;42164;-29
2023/04/07 15:16:14;;;;;;;5.90;3.70;;;;;;;;;;107798;279;38794;-30
2023/04/07 15:18:50;;;;;;;6.80;3.50;;;;;;;;;;107815;279;39783;-30
2023/04/07 15:21:25;;;;;;;6.40;3.30;;;;;;;;;;107815;275;42904;-30
2023/04/07 15:24:00;;;;;;;6.00;3.40;;;;;;;;;;107778;272;42308;-30
2023/04/07 15:26:36;;;;;;;6.20;3.60;;;;;;;;;;107829;279;38563;-31
2023/04/07 15:29:12;;;;;;;5.90;3.60;;;;;;;;;;107829;272;39753;-31
2023/04/07 15:31:48;;;;;;;5.50;3.30;;;;;;;;;;107769;272;42874;-30
2023/04/07 15:34:21;;;;;;;7.40;3.40;;;;;;;;;;107772;279;42148;-31